WetterOnline ( https://www.wetteronline.de )

Wetter aktuell Remptendorf

Aktuelles Wetter: Schleiz (502m)

6-stündlich | Neueste Meldungen
Ortszeit Temperatur Wetter
Mi, 29.05. 2:00 9.6° C wolkig
Di, 28.05. 20:00 15.0° C wolkenlos
Di, 28.05. 14:00 14.4° C bedeckt
Di, 28.05. 8:00 12.4° C leichter Regen
Di, 28.05. 2:00 13.5° C wolkig
Mo, 27.05. 20:00 18.6° C bedeckt
Mo, 27.05. 14:00 19.2° C bewölkt
Mo, 27.05. 8:00 14.9° C bewölkt
Ortszeit Temperatur Wetter
Mi, 29.05. 4:00 9.7° C bedeckt
Mi, 29.05. 3:50 9.7° C bedeckt
Mi, 29.05. 3:40 9.7° C bedeckt
Mi, 29.05. 3:30 9.5° C bedeckt
Mi, 29.05. 3:20 9.5° C bedeckt
Mi, 29.05. 3:10 9.3° C bedeckt
Mi, 29.05. 3:00 9.4° C wolkig
Mi, 29.05. 2:30 9.7° C wolkig
Mi, 29.05. 2:00 9.6° C wolkig
Mi, 29.05. 1:30 9.5° C wolkig
Mi, 29.05. 1:00 9.4° C leicht bewölkt
Ortszeit Relative Feuchte Sichtweite
Mi, 29.05. 2:00 74% >70 km
Di, 28.05. 20:00 52% >70 km
Di, 28.05. 14:00 65% >70 km
Di, 28.05. 8:00 91% 25 km
Di, 28.05. 2:00 92% 55 km
Mo, 27.05. 20:00 67% 55 km
Mo, 27.05. 14:00 64% >70 km
Mo, 27.05. 8:00 83% 55 km
Ortszeit Relative Feuchte Sichtweite
Mi, 29.05. 4:00 75% 60 km
Mi, 29.05. 3:50 75% -
Mi, 29.05. 3:40 74% -
Mi, 29.05. 3:30 75% >70 km
Mi, 29.05. 3:20 75% -
Mi, 29.05. 3:10 76% -
Mi, 29.05. 3:00 75% 65 km
Mi, 29.05. 2:30 73% >70 km
Mi, 29.05. 2:00 74% >70 km
Mi, 29.05. 1:30 75% >70 km
Mi, 29.05. 1:00 74% >70 km
Ortszeit Niederschlagsmenge Niederschlagsart
Mi, 29.05. 2:00 0.0 l/m2 in 6 Std. -
Di, 28.05. 20:00 0.1 l/m2 in 12 Std. -
Di, 28.05. 14:00 0.1 l/m2 in 6 Std. Regen
Di, 28.05. 8:00 0.2 l/m2 in 12 Std. Regen
Di, 28.05. 2:00 0.1 l/m2 in 6 Std. Regen
Mo, 27.05. 20:00 0.1 l/m2 in 12 Std. -
Mo, 27.05. 14:00 0.1 l/m2 in 6 Std. Regen
Mo, 27.05. 8:00 0.1 l/m2 in 12 Std. Regen
Ortszeit Niederschlagsmenge Niederschlagsart
Mi, 29.05. 4:00 0.0 l/m2 in 1 Std. -
Mi, 29.05. 3:50 keine Meldung -
Mi, 29.05. 3:40 keine Meldung -
Mi, 29.05. 3:30 0.0 l/m2 in 30 Min -
Mi, 29.05. 3:20 keine Meldung -
Mi, 29.05. 3:10 keine Meldung -
Mi, 29.05. 3:00 0.0 l/m2 in 1 Std. -
Mi, 29.05. 2:30 0.0 l/m2 in 30 Min -
Mi, 29.05. 2:00 0.0 l/m2 in 1 Std. -
Mi, 29.05. 1:30 0.0 l/m2 in 30 Min -
Mi, 29.05. 1:00 0.0 l/m2 in 1 Std. -
Ortszeit Stärke Spitze Richtung
km/h Bft. km/h Grad Sektor
Mi, 29.05. 2:00 9 2 22 180° S
Di, 28.05. 20:00 15 3 33 230° SW
Di, 28.05. 14:00 11 2 29 270° W
Di, 28.05. 8:00 15 3 20 270° W
Di, 28.05. 2:00 11 2 25 240° SW
Mo, 27.05. 20:00 4 1 25 210° SW
Mo, 27.05. 14:00 13 3 24 180° S
Mo, 27.05. 8:00 7 2 22 180° S
Ortszeit Stärke Spitze Richtung
km/h Bft. km/h Grad Sektor
Mi, 29.05. 4:00 9 2 19 170° S
Mi, 29.05. 3:50 9 2 - 170° S
Mi, 29.05. 3:40 15 3 - 160° S
Mi, 29.05. 3:30 17 3 19 160° S
Mi, 29.05. 3:20 17 3 - 160° S
Mi, 29.05. 3:10 13 3 - 170° S
Mi, 29.05. 3:00 13 3 20 170° S
Mi, 29.05. 2:30 17 3 20 170° S
Mi, 29.05. 2:00 9 2 17 180° S
Mi, 29.05. 1:30 9 2 17 180° S
Mi, 29.05. 1:00 6 1 15 170° S
Ortszeit Untergrenze Bedeckung Gattung
total tief tief mittel hoch
Mi, 29.05. 2:00 8400 m 8/8 0/8 - - -
Di, 28.05. 20:00 - 0/8 0/8 - - -
Di, 28.05. 14:00 1080 m 8/8 8/8 - - -
Di, 28.05. 8:00 1800 m 8/8 8/8 - - -
Di, 28.05. 2:00 2100 m 8/8 2/8 - - -
Mo, 27.05. 20:00 3300 m 8/8 8/8 - - -
Mo, 27.05. 14:00 1410 m 7/8 7/8 - - -
Mo, 27.05. 8:00 2100 m 7/8 7/8 - - -
Ortszeit Bedeckungsgrad in Achtel und Wolkenuntergrenze
Mi, 29.05. 4:00 8(6000m) 8(7200m)
Mi, 29.05. 3:50 8(6000m) 8(7200m)
Mi, 29.05. 3:40 8
Mi, 29.05. 3:30 8(6600m) 8(8700m) 8(9000m)
Mi, 29.05. 3:20 8(6600m) 8(8700m) 8(9000m)
Mi, 29.05. 3:10 8
Mi, 29.05. 3:00 8(7500m) 8(8700m)
Mi, 29.05. 2:30 6(8400m) 7(9000m)
Mi, 29.05. 2:00 8(8400m) 8(9000m)
Mi, 29.05. 1:30 7(8400m) 8(9000m)
Mi, 29.05. 1:00 6(9000m)
Ortszeit Luftdruck NN (hPa) Tendenz (hPa in 3 Std.)
Mi, 29.05. 2:00 1019 - 0,8
Di, 28.05. 20:00 1018 0,0
Di, 28.05. 14:00 1019 + 0,3
Di, 28.05. 8:00 1017 + 0,9
Di, 28.05. 2:00 1016 0,0
Mo, 27.05. 20:00 1014 - 0,9
Mo, 27.05. 14:00 1017 - 1,1
Mo, 27.05. 8:00 1018 + 0,8
Ortszeit Luftdruck NN (hPa) Tendenz (hPa in 3 Std.)
Mi, 29.05. 4:00 1018 - 1,3
Mi, 29.05. 3:50 1018 keine Meldung
Mi, 29.05. 3:40 1018 keine Meldung
Mi, 29.05. 3:30 1018 - 1,2
Mi, 29.05. 3:20 1018 keine Meldung
Mi, 29.05. 3:10 1018 keine Meldung
Mi, 29.05. 3:00 1018 - 1,0
Mi, 29.05. 2:30 1019 - 0,8
Mi, 29.05. 2:00 1019 - 0,8
Mi, 29.05. 1:30 1019 - 0,7
Mi, 29.05. 1:00 1019 - 0,4
Ortszeit Schneehöhe (cm)
Mi, 29.05. 2:00 0
Di, 28.05. 20:00 0
Di, 28.05. 14:00 0
Di, 28.05. 8:00 0
Di, 28.05. 2:00 0
Mo, 27.05. 20:00 0
Mo, 27.05. 14:00 0
Mo, 27.05. 8:00 0
Ortszeit Schneehöhe (cm)
Mi, 29.05. 4:00 0
Mi, 29.05. 3:50 0
Mi, 29.05. 3:40 -
Mi, 29.05. 3:30 0
Mi, 29.05. 3:20 0
Mi, 29.05. 3:10 -
Mi, 29.05. 3:00 0
Mi, 29.05. 2:30 0
Mi, 29.05. 2:00 0
Mi, 29.05. 1:30 0
Mi, 29.05. 1:00 0
Link zu dieser Seite / Seite empfehlen

Das Wetter in ...